createdAt,value
2022-09-02T00:01:45.529Z,1012.1
2022-09-02T00:04:33.594Z,1012.1
2022-09-02T00:07:21.255Z,1012.1
2022-09-02T00:10:08.938Z,1012.1
2022-09-02T00:12:56.628Z,1012.1
2022-09-02T00:15:44.429Z,1012
2022-09-02T00:18:33.771Z,1012.1
2022-09-02T00:21:24.434Z,1012.1
2022-09-02T00:24:12.206Z,1012
2022-09-02T00:26:59.970Z,1012
2022-09-02T00:29:47.770Z,1012
2022-09-02T00:32:35.391Z,1012.1
2022-09-02T00:35:23.686Z,1012.1
2022-09-02T00:38:12.550Z,1012.1
2022-09-02T00:41:00.289Z,1012.1
2022-09-02T00:43:53.147Z,1012
2022-09-02T00:46:44.414Z,1012.1
2022-09-02T00:49:32.921Z,1012
2022-09-02T00:52:26.502Z,1012
2022-09-02T00:55:18.642Z,1012
2022-09-02T00:58:10.742Z,1012
2022-09-02T01:01:02.984Z,1012
2022-09-02T01:03:50.999Z,1012.1
2022-09-02T01:06:39.569Z,1012
2022-09-02T01:09:27.126Z,1012
2022-09-02T01:12:16.852Z,1012
2022-09-02T01:15:04.364Z,1012.1
2022-09-02T01:17:54.641Z,1012
2022-09-02T01:20:43.573Z,1012
2022-09-02T01:23:34.760Z,1012.1
2022-09-02T01:26:24.070Z,1012.1
2022-09-02T01:29:11.790Z,1012
2022-09-02T01:32:01.286Z,1012.2
2022-09-02T01:34:49.066Z,1012.1
2022-09-02T01:37:37.645Z,1012.1
2022-09-02T01:40:25.451Z,1012.2
2022-09-02T01:43:14.766Z,1012.2
2022-09-02T01:46:04.980Z,1012.1
2022-09-02T01:48:53.229Z,1012.2
2022-09-02T01:51:40.853Z,1012.1
2022-09-02T01:54:28.406Z,1012.2
2022-09-02T01:57:15.869Z,1012.1
2022-09-02T02:00:03.941Z,1012.1
2022-09-02T02:02:55.350Z,1012.1
2022-09-02T02:05:43.013Z,1012.1
2022-09-02T02:08:30.754Z,1012
2022-09-02T02:11:18.595Z,1012
2022-09-02T02:14:08.357Z,1012
2022-09-02T02:16:56.652Z,1012.1
2022-09-02T02:19:44.237Z,1012
2022-09-02T02:22:31.925Z,1012
2022-09-02T02:25:19.731Z,1012
2022-09-02T02:28:07.677Z,1012
2022-09-02T02:30:55.728Z,1012
2022-09-02T02:33:45.327Z,1012
2022-09-02T02:36:32.911Z,1012
2022-09-02T02:39:20.539Z,1012
2022-09-02T02:42:08.222Z,1012
2022-09-02T02:44:58.127Z,1012
2022-09-02T02:47:45.849Z,1012
2022-09-02T02:50:34.235Z,1012.1
2022-09-02T02:53:22.104Z,1012.1
2022-09-02T02:56:09.703Z,1012.1
2022-09-02T02:58:57.324Z,1012.2
2022-09-02T03:01:48.098Z,1012.1
2022-09-02T03:04:35.715Z,1012.1
2022-09-02T03:07:24.662Z,1012.1
2022-09-02T03:10:12.390Z,1012
2022-09-02T03:13:00.643Z,1012.1
2022-09-02T03:15:48.832Z,1012
2022-09-02T03:18:37.774Z,1012.1
2022-09-02T03:21:25.402Z,1012
2022-09-02T03:24:13.222Z,1012
2022-09-02T03:27:00.799Z,1012
2022-09-02T03:29:48.659Z,1012.2
2022-09-02T03:32:36.152Z,1012.1
2022-09-02T03:35:24.459Z,1012
2022-09-02T03:38:13.492Z,1012.2
2022-09-02T03:41:01.082Z,1012.1
2022-09-02T03:43:48.596Z,1012.1
2022-09-02T03:46:36.971Z,1012.1
2022-09-02T03:49:24.739Z,1012.1
2022-09-02T03:52:12.979Z,1012.1
2022-09-02T03:55:00.560Z,1012.1
2022-09-02T03:57:48.990Z,1012.1
2022-09-02T04:00:37.166Z,1012.1
2022-09-02T04:03:25.536Z,1012.1
2022-09-02T04:06:13.446Z,1012.1
2022-09-02T04:09:03.283Z,1012.1
2022-09-02T04:11:51.268Z,1012.2
2022-09-02T04:14:39.472Z,1012.2
2022-09-02T04:17:26.975Z,1012.3
2022-09-02T04:20:14.633Z,1012.2
2022-09-02T04:23:02.195Z,1012.3
2022-09-02T04:25:49.979Z,1012.3
2022-09-02T04:28:37.979Z,1012.3
2022-09-02T04:31:26.410Z,1012.2
2022-09-02T04:34:15.477Z,1012.3
2022-09-02T04:37:03.141Z,1012.2
2022-09-02T04:39:51.224Z,1012.3
2022-09-02T04:42:39.161Z,1012.2
2022-09-02T04:45:29.852Z,1012.1
2022-09-02T04:48:17.724Z,1012.2
2022-09-02T04:51:05.454Z,1012.2
2022-09-02T04:53:57.017Z,1012.3
2022-09-02T04:56:45.698Z,1012.3
2022-09-02T04:59:33.226Z,1012.4
2022-09-02T05:02:21.505Z,1012.4
2022-09-02T05:05:09.074Z,1012.4
2022-09-02T05:07:57.694Z,1012.4
2022-09-02T05:10:45.365Z,1012.4
2022-09-02T05:13:35.098Z,1012.4
2022-09-02T05:16:25.144Z,1012.3
2022-09-02T05:19:15.126Z,1012.4
2022-09-02T05:22:02.673Z,1012.3
2022-09-02T05:24:50.456Z,1012.3
2022-09-02T05:27:38.226Z,1012.4
2022-09-02T05:30:25.915Z,1012.4
2022-09-02T05:33:14.667Z,1012.3
2022-09-02T05:36:02.681Z,1012.4
2022-09-02T05:38:50.986Z,1012.4
2022-09-02T05:41:39.157Z,1012.3
2022-09-02T05:44:26.974Z,1012.4
2022-09-02T05:47:15.925Z,1012.4
2022-09-02T05:50:03.976Z,1012.4
2022-09-02T05:52:55.865Z,1012.5
2022-09-02T05:55:43.977Z,1012.4
2022-09-02T05:58:31.734Z,1012.5
2022-09-02T06:01:19.389Z,1012.5
2022-09-02T06:04:07.698Z,1012.5
2022-09-02T06:06:55.370Z,1012.5
2022-09-02T06:09:42.966Z,1012.5
2022-09-02T06:12:30.778Z,1012.5
2022-09-02T06:15:18.519Z,1012.6
2022-09-02T06:18:06.025Z,1012.5
2022-09-02T06:20:53.675Z,1012.6
2022-09-02T06:23:41.519Z,1012.5
2022-09-02T06:26:29.546Z,1012.5
2022-09-02T06:29:17.698Z,1012.5
2022-09-02T06:32:06.652Z,1012.5
2022-09-02T06:34:54.241Z,1012.4
2022-09-02T06:37:41.761Z,1012.5
2022-09-02T06:40:29.468Z,1012.5
2022-09-02T06:43:17.470Z,1012.5
2022-09-02T06:46:05.338Z,1012.5
2022-09-02T06:48:54.006Z,1012.5
2022-09-02T06:51:42.250Z,1012.5
2022-09-02T06:54:32.468Z,1012.5
2022-09-02T06:57:20.357Z,1012.6
2022-09-02T07:00:09.888Z,1012.5
2022-09-02T07:02:58.481Z,1012.6
2022-09-02T07:06:18.330Z,1012.5
2022-09-02T07:09:06.260Z,1012.5
2022-09-02T07:11:58.932Z,1012.5
2022-09-02T07:14:50.129Z,1012.6
2022-09-02T07:17:38.746Z,1012.5
2022-09-02T07:20:26.267Z,1012.5
2022-09-02T07:23:13.926Z,1012.6
2022-09-02T07:26:01.873Z,1012.5
2022-09-02T07:28:49.712Z,1012.6
2022-09-02T07:31:38.071Z,1012.5
2022-09-02T07:34:28.330Z,1012.5
2022-09-02T07:37:16.495Z,1012.5
2022-09-02T07:40:04.576Z,1012.5
2022-09-02T07:45:43.368Z,1012.5
2022-09-02T07:48:31.700Z,1012.6
2022-09-02T07:51:19.981Z,1012.5
2022-09-02T07:54:08.226Z,1012.6
2022-09-02T07:56:57.930Z,1012.5
2022-09-02T07:59:45.747Z,1012.5
2022-09-02T08:02:33.465Z,1012.6
2022-09-02T08:05:21.618Z,1012.6
2022-09-02T08:08:10.025Z,1012.6
2022-09-02T08:10:58.544Z,1012.5
2022-09-02T08:13:46.307Z,1012.5
2022-09-02T08:16:34.045Z,1012.5
2022-09-02T08:19:23.726Z,1012.5
2022-09-02T08:22:12.022Z,1012.4
2022-09-02T08:24:59.962Z,1012.5
2022-09-02T08:27:47.952Z,1012.5
2022-09-02T08:30:35.815Z,1012.5
2022-09-02T08:33:24.202Z,1012.5
2022-09-02T08:36:11.808Z,1012.5
2022-09-02T08:38:59.960Z,1012.5
2022-09-02T08:41:48.795Z,1012.5
2022-09-02T08:44:47.024Z,1012.5
2022-09-02T08:47:39.974Z,1012.5
2022-09-02T08:50:32.511Z,1012.4
2022-09-02T08:53:23.996Z,1012.4
2022-09-02T08:56:18.022Z,1012.4
2022-09-02T08:59:06.241Z,1012.3
2022-09-02T09:01:57.778Z,1012.3
2022-09-02T09:04:58.287Z,1012.4
2022-09-02T09:07:58.471Z,1012.4
2022-09-02T09:10:55.472Z,1012.4
2022-09-02T09:13:48.075Z,1012.2
2022-09-02T09:16:54.555Z,1012.3
2022-09-02T09:19:45.025Z,1012.3
2022-09-02T09:22:36.611Z,1012.3
2022-09-02T09:25:26.506Z,1012.3
2022-09-02T09:28:15.160Z,1012.2
2022-09-02T09:31:02.804Z,1012.2
2022-09-02T09:33:50.703Z,1012.2
2022-09-02T09:36:44.036Z,1012.2
2022-09-02T09:39:36.337Z,1012.1
2022-09-02T09:42:24.822Z,1012
2022-09-02T09:45:22.329Z,1012
2022-09-02T09:48:19.691Z,1012
2022-09-02T09:51:12.544Z,1012.1
2022-09-02T09:54:01.017Z,1011.9
2022-09-02T09:57:01.273Z,1012
2022-09-02T10:00:06.492Z,1012
2022-09-02T10:03:16.641Z,1011.8
2022-09-02T10:06:08.909Z,1011.9
2022-09-02T10:09:09.262Z,1011.9
2022-09-02T10:12:29.286Z,1012
2022-09-02T10:15:18.405Z,1011.9
2022-09-02T10:18:15.074Z,1011.9
2022-09-02T10:21:15.404Z,1011.9
2022-09-02T10:24:22.019Z,1011.8
2022-09-02T10:27:29.515Z,1011.8
2022-09-02T10:30:25.874Z,1011.8
2022-09-02T10:33:18.027Z,1011.7
2022-09-02T10:36:19.850Z,1011.8
2022-09-02T10:39:18.242Z,1011.8
2022-09-02T10:42:14.532Z,1011.7
2022-09-02T10:45:07.284Z,1011.7
2022-09-02T10:48:02.678Z,1011.8
2022-09-02T10:51:12.235Z,1011.8
2022-09-02T10:54:08.795Z,1011.7
2022-09-02T10:57:08.564Z,1011.7
2022-09-02T11:00:00.702Z,1011.6
2022-09-02T11:02:56.734Z,1011.6
2022-09-02T11:05:55.755Z,1011.6
2022-09-02T11:08:51.422Z,1011.6
2022-09-02T11:11:44.252Z,1011.6
2022-09-02T11:14:38.268Z,1011.5
2022-09-02T11:17:35.622Z,1011.6
2022-09-02T11:20:29.668Z,1011.5
2022-09-02T11:23:26.512Z,1011.5
2022-09-02T11:26:20.225Z,1011.5
2022-09-02T11:29:14.381Z,1011.5
2022-09-02T11:32:05.693Z,1011.5
2022-09-02T11:35:02.271Z,1011.5
2022-09-02T11:37:55.105Z,1011.4
2022-09-02T11:41:32.777Z,1011.4
2022-09-02T11:44:37.931Z,1011.3
2022-09-02T11:48:14.165Z,1011.3
2022-09-02T11:51:24.781Z,1011.3
2022-09-02T11:54:27.561Z,1011.4
2022-09-02T11:57:20.862Z,1011.3
2022-09-02T12:00:10.861Z,1011.4
2022-09-02T12:03:37.779Z,1011.3
2022-09-02T12:06:32.812Z,1011.2
2022-09-02T12:09:20.524Z,1011.3
2022-09-02T12:12:29.268Z,1011.2
2022-09-02T12:15:49.756Z,1011.2
2022-09-02T12:19:22.298Z,1011.1
2022-09-02T12:22:24.881Z,1011.1
2022-09-02T12:25:23.419Z,1011
2022-09-02T12:28:28.215Z,1011
2022-09-02T12:31:16.404Z,1011
2022-09-02T12:34:26.637Z,1010.9
2022-09-02T12:37:55.413Z,1010.9
2022-09-02T12:41:07.793Z,1010.9
2022-09-02T12:44:17.933Z,1010.9
2022-09-02T12:47:14.266Z,1010.8
2022-09-02T12:50:17.158Z,1010.9
2022-09-02T12:53:16.941Z,1010.8
2022-09-02T12:56:19.917Z,1010.8
2022-09-02T12:59:09.109Z,1010.9
2022-09-02T13:04:58.628Z,1010.8
2022-09-02T13:08:02.437Z,1010.9
2022-09-02T13:11:28.896Z,1010.8
2022-09-02T13:14:43.580Z,1010.8
2022-09-02T13:18:07.845Z,1010.8
2022-09-02T13:21:28.100Z,1010.7
2022-09-02T13:26:49.339Z,1010.7
2022-09-02T13:29:58.792Z,1010.8
2022-09-02T13:32:58.144Z,1010.8
2022-09-02T13:35:51.671Z,1010.7
2022-09-02T13:38:41.822Z,1010.7
2022-09-02T13:41:29.470Z,1010.6
2022-09-02T13:44:18.285Z,1010.6
2022-09-02T13:47:07.379Z,1010.4
2022-09-02T13:50:00.999Z,1010.5
2022-09-02T13:53:45.448Z,1010.4
2022-09-02T13:56:47.118Z,1010.4
2022-09-02T13:59:34.948Z,1010.4
2022-09-02T14:02:25.941Z,1010.3
2022-09-02T14:05:16.039Z,1010.3
2022-09-02T14:08:07.837Z,1010.4
2022-09-02T14:11:02.255Z,1010.3
2022-09-02T14:13:53.564Z,1010.3
2022-09-02T14:16:42.782Z,1010.2
2022-09-02T14:19:30.567Z,1010.2
2022-09-02T14:22:18.177Z,1010.2
2022-09-02T14:25:11.930Z,1010.2
2022-09-02T14:28:01.520Z,1010.3
2022-09-02T14:30:58.102Z,1010.3
2022-09-02T14:33:48.288Z,1010.3
2022-09-02T14:36:36.508Z,1010.2
2022-09-02T14:39:25.098Z,1010.3
2022-09-02T14:42:12.792Z,1010.3
2022-09-02T14:45:01.449Z,1010.3
2022-09-02T14:47:53.336Z,1010.3
2022-09-02T14:50:43.274Z,1010.3
2022-09-02T14:53:30.909Z,1010.2
2022-09-02T14:56:22.128Z,1010.2
2022-09-02T14:59:30.041Z,1010.2
2022-09-02T15:02:17.575Z,1010.2
2022-09-02T15:05:09.008Z,1010.3
2022-09-02T15:07:59.448Z,1010.3
2022-09-02T15:10:47.446Z,1010.2
2022-09-02T15:13:35.608Z,1010.2
2022-09-02T15:16:23.712Z,1010.2
2022-09-02T15:19:11.507Z,1010.2
2022-09-02T15:21:59.053Z,1010.2
2022-09-02T15:24:46.724Z,1010.2
2022-09-02T15:27:35.297Z,1010.2
2022-09-02T15:30:22.966Z,1010.1
2022-09-02T15:33:19.828Z,1009.9
2022-09-02T15:36:07.697Z,1010.1
2022-09-02T15:38:57.842Z,1010.1
2022-09-02T15:41:45.515Z,1010
2022-09-02T15:44:34.716Z,1010.1
2022-09-02T15:47:22.302Z,1010
2022-09-02T15:50:09.850Z,1010.1
2022-09-02T15:52:57.597Z,1010.1
2022-09-02T15:55:45.377Z,1010.1
2022-09-02T15:58:32.977Z,1010.1
2022-09-02T16:01:24.634Z,1010.1
2022-09-02T16:04:14.555Z,1010.1
2022-09-02T16:07:02.975Z,1010.1
2022-09-02T16:09:51.014Z,1010.2
2022-09-02T16:12:38.820Z,1010.1
2022-09-02T16:15:26.834Z,1010.1
2022-09-02T16:18:14.722Z,1010.2
2022-09-02T16:21:02.390Z,1010.1
2022-09-02T16:23:51.328Z,1010.1
2022-09-02T16:26:38.974Z,1010.1
2022-09-02T16:29:28.043Z,1010.1
2022-09-02T16:32:27.702Z,1010
2022-09-02T16:35:15.578Z,1010
2022-09-02T16:38:03.289Z,1009.9
2022-09-02T16:40:50.905Z,1010
2022-09-02T16:43:39.950Z,1009.9
2022-09-02T16:46:27.764Z,1010
2022-09-02T16:49:15.771Z,1010
2022-09-02T16:52:05.558Z,1010
2022-09-02T16:54:53.212Z,1009.9
2022-09-02T16:57:40.916Z,1010.1
2022-09-02T17:00:28.390Z,1010.1
2022-09-02T17:03:15.928Z,1010
2022-09-02T17:06:03.621Z,1010
2022-09-02T17:08:52.301Z,1010
2022-09-02T17:11:39.993Z,1010
2022-09-02T17:14:29.794Z,1010
2022-09-02T17:17:17.403Z,1010
2022-09-02T17:20:05.122Z,1010
2022-09-02T17:22:53.801Z,1009.9
2022-09-02T17:25:41.572Z,1010
2022-09-02T17:28:30.996Z,1010
2022-09-02T17:31:18.649Z,1010.1
2022-09-02T17:34:09.747Z,1010.1
2022-09-02T17:36:57.910Z,1010
2022-09-02T17:39:46.297Z,1010.1
2022-09-02T17:42:34.764Z,1010.1
2022-09-02T17:45:22.729Z,1010.1
2022-09-02T17:48:35.314Z,1010
2022-09-02T17:51:26.640Z,1010.1
2022-09-02T17:54:16.062Z,1010.1
2022-09-02T17:57:03.979Z,1010.1
2022-09-02T18:00:05.118Z,1010.2
2022-09-02T18:02:56.456Z,1010.2
2022-09-02T18:06:13.115Z,1010.2
2022-09-02T18:09:05.714Z,1010.2
2022-09-02T18:11:57.732Z,1010.2
2022-09-02T18:14:45.734Z,1010.2
2022-09-02T18:17:40.602Z,1010.1
2022-09-02T18:20:32.705Z,1010.2
2022-09-02T18:23:27.811Z,1010.3
2022-09-02T18:26:31.976Z,1010.3
2022-09-02T18:29:38.993Z,1010.3
2022-09-02T18:32:39.148Z,1010.3
2022-09-02T18:35:41.138Z,1010.2
2022-09-02T18:38:37.606Z,1010.2
2022-09-02T18:41:34.101Z,1010.3
2022-09-02T18:44:32.524Z,1010.3
2022-09-02T18:47:29.526Z,1010.3
2022-09-02T18:50:45.035Z,1010.3
2022-09-02T18:53:42.349Z,1010.3
2022-09-02T18:56:33.735Z,1010.4
2022-09-02T18:59:25.968Z,1010.4
2022-09-02T19:02:22.844Z,1010.4
2022-09-02T19:05:17.683Z,1010.4
2022-09-02T19:08:09.901Z,1010.3
2022-09-02T19:11:18.604Z,1010.4
2022-09-02T19:14:07.986Z,1010.4
2022-09-02T19:17:07.430Z,1010.3
2022-09-02T19:19:57.184Z,1010.4
2022-09-02T19:22:45.303Z,1010.4
2022-09-02T19:25:37.368Z,1010.4
2022-09-02T19:28:29.256Z,1010.4
2022-09-02T19:31:18.304Z,1010.4
2022-09-02T19:34:09.195Z,1010.4
2022-09-02T19:36:58.392Z,1010.3
2022-09-02T19:39:47.061Z,1010.4
2022-09-02T19:42:35.905Z,1010.4
2022-09-02T19:45:23.886Z,1010.4
2022-09-02T19:48:14.114Z,1010.5
2022-09-02T19:51:02.689Z,1010.4
2022-09-02T19:53:56.301Z,1010.5
2022-09-02T19:56:44.959Z,1010.4
2022-09-02T19:59:32.614Z,1010.6
2022-09-02T20:02:20.332Z,1010.6
2022-09-02T20:05:08.125Z,1010.6
2022-09-02T20:07:58.055Z,1010.5
2022-09-02T20:10:46.304Z,1010.5
2022-09-02T20:13:41.755Z,1010.5
2022-09-02T20:16:29.802Z,1010.5
2022-09-02T20:19:17.789Z,1010.5
2022-09-02T20:22:06.091Z,1010.6
2022-09-02T20:24:56.530Z,1010.6
2022-09-02T20:27:45.268Z,1010.7
2022-09-02T20:30:48.827Z,1010.7
2022-09-02T20:33:44.058Z,1010.7
2022-09-02T20:36:39.237Z,1010.7
2022-09-02T20:39:34.522Z,1010.7
2022-09-02T20:42:38.046Z,1010.7
2022-09-02T20:45:45.144Z,1010.7
2022-09-02T20:48:40.311Z,1010.7
2022-09-02T20:51:42.927Z,1010.8
2022-09-02T20:54:39.878Z,1010.7
2022-09-02T20:57:38.006Z,1010.8
2022-09-02T21:01:00.929Z,1010.7
2022-09-02T21:03:52.145Z,1010.8
2022-09-02T21:06:47.064Z,1010.7
2022-09-02T21:09:38.869Z,1010.6
2022-09-02T21:12:36.825Z,1010.7
2022-09-02T21:15:31.075Z,1010.7
2022-09-02T21:18:24.875Z,1010.7
2022-09-02T21:21:20.736Z,1010.7
2022-09-02T21:24:15.717Z,1010.7
2022-09-02T21:27:09.600Z,1010.7
2022-09-02T21:30:03.587Z,1010.7
2022-09-02T21:32:54.235Z,1010.6
2022-09-02T21:35:45.647Z,1010.7
2022-09-02T21:38:38.379Z,1010.8
2022-09-02T21:41:30.199Z,1010.8
2022-09-02T21:44:22.397Z,1010.8
2022-09-02T21:47:19.134Z,1010.8
2022-09-02T21:50:12.713Z,1010.8
2022-09-02T21:53:07.032Z,1010.7
2022-09-02T21:56:04.591Z,1010.8
2022-09-02T21:59:19.847Z,1010.8
2022-09-02T22:02:24.969Z,1010.7
2022-09-02T22:05:23.749Z,1010.7
2022-09-02T22:08:21.500Z,1010.8
2022-09-02T22:11:17.681Z,1010.7
2022-09-02T22:14:12.295Z,1010.8
2022-09-02T22:17:07.506Z,1010.8
2022-09-02T22:20:05.137Z,1010.8
2022-09-02T22:22:53.915Z,1010.9
2022-09-02T22:25:50.645Z,1010.8
2022-09-02T22:28:40.372Z,1010.8
2022-09-02T22:31:31.861Z,1010.8
2022-09-02T22:34:24.772Z,1010.7
2022-09-02T22:37:15.256Z,1010.8
2022-09-02T22:40:09.268Z,1010.8
2022-09-02T22:43:01.464Z,1010.7
2022-09-02T22:45:55.975Z,1010.7
2022-09-02T22:49:20.699Z,1010.7
2022-09-02T22:53:40.701Z,1010.7
2022-09-02T22:56:29.713Z,1010.7
2022-09-02T22:59:27.373Z,1010.7
2022-09-02T23:02:26.761Z,1010.7
2022-09-02T23:05:21.444Z,1010.7
2022-09-02T23:08:29.693Z,1010.7
2022-09-02T23:11:21.789Z,1010.6
2022-09-02T23:14:15.969Z,1010.7
2022-09-02T23:17:13.497Z,1010.7
2022-09-02T23:20:19.106Z,1010.7
2022-09-02T23:23:11.599Z,1010.8
2022-09-02T23:26:09.230Z,1010.8
2022-09-02T23:29:08.860Z,1010.8
2022-09-02T23:32:02.752Z,1010.8
2022-09-02T23:35:08.163Z,1010.8
2022-09-02T23:38:04.995Z,1010.8
2022-09-02T23:41:11.906Z,1010.8
2022-09-02T23:44:02.616Z,1010.8
2022-09-02T23:46:51.707Z,1010.9
2022-09-02T23:49:53.183Z,1010.8
2022-09-02T23:52:51.211Z,1010.7
2022-09-02T23:55:44.708Z,1010.8
2022-09-02T23:58:43.451Z,1010.8
